sensor_id;sensor_type;location;lat;lon;timestamp;noise_LAeq;noise_LA_min;noise_LA_max;noise_LA01;noise_LA95
46746;Laerm;32493;50.514;9.678;2022-09-03T20:22:50;37.28;34.53;41.54;;
46746;Laerm;32493;50.514;9.678;2022-09-03T20:27:56;35.46;33.83;37.91;;
46746;Laerm;32493;50.514;9.678;2022-09-03T20:30:09;35.28;33.85;39.20;;
46746;Laerm;32493;50.514;9.678;2022-09-03T20:35:08;34.84;33.27;36.16;;
46746;Laerm;32493;50.514;9.678;2022-09-03T20:37:27;34.68;33.37;35.87;;
46746;Laerm;32493;50.514;9.678;2022-09-03T20:39:52;34.53;33.14;35.85;;
46746;Laerm;32493;50.514;9.678;2022-09-03T20:42:28;34.38;32.89;35.68;;
46746;Laerm;32493;50.514;9.678;2022-09-03T20:44:53;34.65;33.02;36.21;;
46746;Laerm;32493;50.514;9.678;2022-09-03T20:47:18;34.70;33.24;36.61;;
46746;Laerm;32493;50.514;9.678;2022-09-03T20:49:38;34.86;33.48;36.99;;
46746;Laerm;32493;50.514;9.678;2022-09-03T20:51:53;34.79;33.14;42.12;;
46746;Laerm;32493;50.514;9.678;2022-09-03T20:54:11;34.69;33.32;36.19;;
46746;Laerm;32493;50.514;9.678;2022-09-03T20:56:28;34.86;33.52;36.33;;
46746;Laerm;32493;50.514;9.678;2022-09-03T20:58:43;35.11;33.59;39.27;;
46746;Laerm;32493;50.514;9.678;2022-09-03T21:00:55;35.03;33.56;37.20;;
46746;Laerm;32493;50.514;9.678;2022-09-03T21:03:13;34.70;33.13;36.10;;
46746;Laerm;32493;50.514;9.678;2022-09-03T21:05:27;34.44;33.00;35.90;;
46746;Laerm;32493;50.514;9.678;2022-09-03T21:07:45;34.55;32.98;38.06;;
46746;Laerm;32493;50.514;9.678;2022-09-03T21:10:04;34.50;33.04;36.41;;
46746;Laerm;32493;50.514;9.678;2022-09-03T21:12:25;34.33;33.03;35.71;;
46746;Laerm;32493;50.514;9.678;2022-09-03T21:14:37;34.32;32.38;35.72;;
46746;Laerm;32493;50.514;9.678;2022-09-03T21:16:55;34.26;32.80;36.09;;
46746;Laerm;32493;50.514;9.678;2022-09-03T21:19:10;34.40;32.83;35.94;;
46746;Laerm;32493;50.514;9.678;2022-09-03T21:21:28;34.39;32.91;35.85;;
46746;Laerm;32493;50.514;9.678;2022-09-03T21:23:42;34.57;33.23;35.91;;
46746;Laerm;32493;50.514;9.678;2022-09-03T21:25:57;34.52;33.05;35.76;;
46746;Laerm;32493;50.514;9.678;2022-09-03T21:28:15;34.39;33.06;35.85;;
46746;Laerm;32493;50.514;9.678;2022-09-03T21:30:21;34.30;32.91;35.52;;
46746;Laerm;32493;50.514;9.678;2022-09-03T21:32:34;34.30;33.01;35.42;;
46746;Laerm;32493;50.514;9.678;2022-09-03T21:34:48;34.25;33.02;35.59;;
46746;Laerm;32493;50.514;9.678;2022-09-03T21:36:56;34.16;32.84;35.46;;
46746;Laerm;32493;50.514;9.678;2022-09-03T21:39:08;34.18;32.63;35.43;;
46746;Laerm;32493;50.514;9.678;2022-09-03T21:41:20;34.25;32.99;37.90;;
46746;Laerm;32493;50.514;9.678;2022-09-03T21:43:33;34.18;32.87;35.49;;
46746;Laerm;32493;50.514;9.678;2022-09-03T21:45:50;34.14;32.73;35.42;;
46746;Laerm;32493;50.514;9.678;2022-09-03T21:48:12;34.14;32.75;38.62;;
46746;Laerm;32493;50.514;9.678;2022-09-03T21:50:27;34.15;32.68;35.74;;
46746;Laerm;32493;50.514;9.678;2022-09-03T21:52:41;34.02;32.38;35.38;;
46746;Laerm;32493;50.514;9.678;2022-09-03T21:54:48;33.74;32.31;34.98;;
46746;Laerm;32493;50.514;9.678;2022-09-03T21:57:12;33.65;32.18;34.95;;
46746;Laerm;32493;50.514;9.678;2022-09-03T21:59:59;33.69;32.26;34.97;;
46746;Laerm;32493;50.514;9.678;2022-09-03T22:02:21;33.64;32.23;35.15;;
46746;Laerm;32493;50.514;9.678;2022-09-03T22:04:29;33.68;32.32;35.13;;
46746;Laerm;32493;50.514;9.678;2022-09-03T22:06:43;33.71;32.23;35.36;;
46746;Laerm;32493;50.514;9.678;2022-09-03T22:09:02;33.74;32.15;35.19;;
46746;Laerm;32493;50.514;9.678;2022-09-03T22:11:19;33.99;32.49;41.16;;
46746;Laerm;32493;50.514;9.678;2022-09-03T22:13:42;34.48;33.08;44.76;;
46746;Laerm;32493;50.514;9.678;2022-09-03T22:16:00;34.10;32.59;35.65;;
46746;Laerm;32493;50.514;9.678;2022-09-03T22:18:19;33.81;32.49;35.16;;
46746;Laerm;32493;50.514;9.678;2022-09-03T22:20:31;33.73;32.08;35.06;;
46746;Laerm;32493;50.514;9.678;2022-09-03T22:22:45;33.71;32.17;34.95;;
46746;Laerm;32493;50.514;9.678;2022-09-03T22:25:08;33.80;32.36;35.50;;
46746;Laerm;32493;50.514;9.678;2022-09-03T22:27:23;34.12;32.59;35.60;;
46746;Laerm;32493;50.514;9.678;2022-09-03T22:29:47;34.31;33.09;35.83;;
46746;Laerm;32493;50.514;9.678;2022-09-03T22:32:06;34.24;32.79;35.60;;
46746;Laerm;32493;50.514;9.678;2022-09-03T22:34:43;34.11;32.58;35.39;;
46746;Laerm;32493;50.514;9.678;2022-09-03T22:36:58;34.04;32.56;35.37;;
46746;Laerm;32493;50.514;9.678;2022-09-03T22:39:20;33.85;32.54;35.17;;
46746;Laerm;32493;50.514;9.678;2022-09-03T22:42:13;33.86;32.44;35.13;;
46746;Laerm;32493;50.514;9.678;2022-09-03T22:44:52;34.01;32.43;35.41;;
46746;Laerm;32493;50.514;9.678;2022-09-03T22:47:16;34.00;32.41;35.54;;
46746;Laerm;32493;50.514;9.678;2022-09-03T22:49:36;34.10;32.61;35.44;;
46746;Laerm;32493;50.514;9.678;2022-09-03T22:52:14;34.01;32.61;35.59;;
46746;Laerm;32493;50.514;9.678;2022-09-03T22:54:40;34.06;32.49;50.53;;
46746;Laerm;32493;50.514;9.678;2022-09-03T22:56:48;33.94;32.65;35.21;;
46746;Laerm;32493;50.514;9.678;2022-09-03T22:58:58;33.98;32.56;35.35;;
46746;Laerm;32493;50.514;9.678;2022-09-03T23:01:09;34.20;32.74;36.81;;
46746;Laerm;32493;50.514;9.678;2022-09-03T23:03:28;34.44;33.16;35.62;;
46746;Laerm;32493;50.514;9.678;2022-09-03T23:05:44;34.55;33.23;36.28;;
46746;Laerm;32493;50.514;9.678;2022-09-03T23:08:14;34.54;33.20;35.79;;
46746;Laerm;32493;50.514;9.678;2022-09-03T23:10:30;34.54;33.22;36.00;;
46746;Laerm;32493;50.514;9.678;2022-09-03T23:12:40;34.51;33.15;35.95;;
46746;Laerm;32493;50.514;9.678;2022-09-03T23:14:51;34.58;33.23;35.83;;
46746;Laerm;32493;50.514;9.678;2022-09-03T23:17:03;34.54;33.29;35.87;;
46746;Laerm;32493;50.514;9.678;2022-09-03T23:19:18;34.47;33.10;35.58;;
46746;Laerm;32493;50.514;9.678;2022-09-03T23:21:32;34.46;32.94;35.64;;
46746;Laerm;32493;50.514;9.678;2022-09-03T23:23:49;34.49;33.17;35.79;;
46746;Laerm;32493;50.514;9.678;2022-09-03T23:26:06;34.56;33.35;35.80;;
46746;Laerm;32493;50.514;9.678;2022-09-03T23:28:21;34.58;33.34;35.88;;
46746;Laerm;32493;50.514;9.678;2022-09-03T23:30:28;34.57;33.37;35.91;;
46746;Laerm;32493;50.514;9.678;2022-09-03T23:32:34;34.58;33.01;36.02;;
46746;Laerm;32493;50.514;9.678;2022-09-03T23:34:43;34.56;33.31;35.98;;
46746;Laerm;32493;50.514;9.678;2022-09-03T23:37:09;34.51;33.28;35.96;;
46746;Laerm;32493;50.514;9.678;2022-09-03T23:39:53;34.45;33.24;35.92;;
46746;Laerm;32493;50.514;9.678;2022-09-03T23:42:14;34.44;33.14;35.93;;
46746;Laerm;32493;50.514;9.678;2022-09-03T23:44:40;34.42;33.15;35.74;;
46746;Laerm;32493;50.514;9.678;2022-09-03T23:47:04;34.37;33.00;35.60;;
46746;Laerm;32493;50.514;9.678;2022-09-03T23:49:29;34.44;33.10;35.75;;
46746;Laerm;32493;50.514;9.678;2022-09-03T23:51:53;34.49;33.03;36.92;;
46746;Laerm;32493;50.514;9.678;2022-09-03T23:54:10;34.50;33.25;35.80;;
46746;Laerm;32493;50.514;9.678;2022-09-03T23:59:17;34.48;33.22;35.92;;
